Time;durP1;ratioP1;P1;durP2;ratioP2;P2;SDS_P1;SDS_P2;PMS_P1;PMS_P2;Temp;Humidity;BMP_temperature;BMP_pressure;BME280_temperature;BME280_humidity;BME280_pressure;Samples;Min_cycle;Max_cycle;Signal;HPM_P1;HPM_P2
2022/09/15 00:01:49;;;;;;;3.00;1.97;;;;;;;;;;5093094;28;20446;-71
2022/09/15 00:04:16;;;;;;;3.53;2.70;;;;;;;;;;5093311;28;20474;-71
2022/09/15 00:06:44;;;;;;;4.80;2.77;;;;;;;;;;5093551;28;20447;-71
2022/09/15 00:09:12;;;;;;;5.80;2.00;;;;;;;;;;5093519;28;21138;-71
2022/09/15 00:11:39;;;;;;;3.37;1.87;;;;;;;;;;5093461;28;20899;-71
2022/09/15 00:14:07;;;;;;;3.63;2.27;;;;;;;;;;5093092;28;20863;-71
2022/09/15 00:16:35;;;;;;;2.50;2.00;;;;;;;;;;5093310;28;20459;-71
2022/09/15 00:19:02;;;;;;;3.30;2.27;;;;;;;;;;5093381;28;20442;-71
2022/09/15 00:21:30;;;;;;;2.70;2.10;;;;;;;;;;5093122;28;20932;-71
2022/09/15 00:23:57;;;;;;;2.30;1.83;;;;;;;;;;5092651;28;20462;-71
2022/09/15 00:26:26;;;;;;;7.23;2.60;;;;;;;;;;5093110;28;20451;-71
2022/09/15 00:28:54;;;;;;;2.90;2.23;;;;;;;;;;5093221;28;20454;-71
2022/09/15 00:31:23;;;;;;;3.47;2.37;;;;;;;;;;5093154;28;20461;-71
2022/09/15 00:33:51;;;;;;;7.30;2.20;;;;;;;;;;5092776;28;20494;-71
2022/09/15 00:36:18;;;;;;;6.27;2.53;;;;;;;;;;5093160;28;20470;-71
2022/09/15 00:38:46;;;;;;;4.17;2.23;;;;;;;;;;5093111;28;20545;-71
2022/09/15 00:41:16;;;;;;;2.40;1.83;;;;;;;;;;5092882;28;20462;-71
2022/09/15 00:43:50;;;;;;;2.83;2.27;;;;;;;;;;5092932;28;20451;-71
2022/09/15 00:46:19;;;;;;;3.57;2.13;;;;;;;;;;5092945;28;20451;-71
2022/09/15 00:48:47;;;;;;;3.90;2.00;;;;;;;;;;5092918;28;20807;-73
2022/09/15 00:51:17;;;;;;;2.47;1.60;;;;;;;;;;5093035;28;20875;-71
2022/09/15 00:53:45;;;;;;;2.90;1.70;;;;;;;;;;5092450;28;20831;-71
2022/09/15 00:56:12;;;;;;;2.80;2.13;;;;;;;;;;5092873;28;20913;-71
2022/09/15 00:58:43;;;;;;;2.70;1.80;;;;;;;;;;5092774;28;20450;-71
2022/09/15 01:01:13;;;;;;;4.03;1.90;;;;;;;;;;5092838;28;20458;-71
2022/09/15 01:03:40;;;;;;;3.40;2.30;;;;;;;;;;5092715;28;20808;-71
2022/09/15 01:06:10;;;;;;;6.43;2.27;;;;;;;;;;5092643;28;20827;-71
2022/09/15 01:08:40;;;;;;;4.47;1.90;;;;;;;;;;5092616;28;20466;-71
2022/09/15 01:11:07;;;;;;;5.33;1.90;;;;;;;;;;5093074;28;20450;-71
2022/09/15 01:13:34;;;;;;;2.83;2.60;;;;;;;;;;5094227;28;20446;-71
2022/09/15 01:16:07;;;;;;;2.57;2.33;;;;;;;;;;5096747;28;20966;-71
2022/09/15 01:18:40;;;;;;;2.73;1.90;;;;;;;;;;5096557;28;20451;-71
2022/09/15 01:21:20;;;;;;;2.20;1.80;;;;;;;;;;5096867;28;20454;-73
2022/09/15 01:24:07;;;;;;;3.67;2.30;;;;;;;;;;5096199;28;20466;-73
2022/09/15 01:26:46;;;;;;;3.07;2.00;;;;;;;;;;5096726;28;20453;-73
2022/09/15 01:29:24;;;;;;;2.43;2.20;;;;;;;;;;5096675;28;20457;-71
2022/09/15 01:34:44;;;;;;;2.47;2.27;;;;;;;;;;5095923;28;20583;-71
2022/09/15 01:37:16;;;;;;;3.30;2.30;;;;;;;;;;5096348;28;20442;-71
2022/09/15 01:39:45;;;;;;;4.70;2.10;;;;;;;;;;5096225;28;20819;-71
2022/09/15 01:42:14;;;;;;;3.60;1.80;;;;;;;;;;5096253;28;20466;-71
2022/09/15 01:44:44;;;;;;;2.37;1.73;;;;;;;;;;5095908;28;20485;-71
2022/09/15 01:47:14;;;;;;;6.03;2.33;;;;;;;;;;5096257;28;20944;-71
2022/09/15 01:49:43;;;;;;;3.43;2.03;;;;;;;;;;5096340;28;20442;-73
2022/09/15 01:52:11;;;;;;;4.27;2.40;;;;;;;;;;5096075;28;20968;-71
2022/09/15 01:54:41;;;;;;;3.40;2.27;;;;;;;;;;5095528;28;20493;-71
2022/09/15 01:57:08;;;;;;;3.77;2.23;;;;;;;;;;5095989;28;20840;-71
2022/09/15 01:59:35;;;;;;;3.30;1.90;;;;;;;;;;5095865;28;20826;-71
2022/09/15 02:02:06;;;;;;;2.97;2.37;;;;;;;;;;5095980;28;20454;-71
2022/09/15 02:04:37;;;;;;;2.53;1.90;;;;;;;;;;5095504;28;20470;-71
2022/09/15 02:07:06;;;;;;;3.47;2.00;;;;;;;;;;5095779;28;20461;-71
2022/09/15 02:09:37;;;;;;;4.80;2.20;;;;;;;;;;5095649;28;20451;-71
2022/09/15 02:12:09;;;;;;;6.70;2.20;;;;;;;;;;5095871;28;20447;-71
2022/09/15 02:14:41;;;;;;;4.17;2.27;;;;;;;;;;5095338;28;20494;-71
2022/09/15 02:17:13;;;;;;;3.70;2.07;;;;;;;;;;5095734;28;20493;-71
2022/09/15 02:19:42;;;;;;;2.40;2.00;;;;;;;;;;5095613;28;20834;-71
2022/09/15 02:22:13;;;;;;;3.50;2.37;;;;;;;;;;5095063;28;20462;-71
2022/09/15 02:24:41;;;;;;;3.33;1.60;;;;;;;;;;5094331;28;21053;-71
2022/09/15 02:27:10;;;;;;;3.00;2.23;;;;;;;;;;5095445;28;20450;-71
2022/09/15 02:29:38;;;;;;;6.67;1.70;;;;;;;;;;5095298;28;20458;-71
2022/09/15 02:32:06;;;;;;;4.40;1.80;;;;;;;;;;5095569;28;20998;-71
2022/09/15 02:34:36;;;;;;;3.40;1.93;;;;;;;;;;5094912;28;20495;-71
2022/09/15 02:37:04;;;;;;;2.47;1.90;;;;;;;;;;5095359;28;20822;-71
2022/09/15 02:39:33;;;;;;;2.73;1.70;;;;;;;;;;5095262;28;20939;-71
2022/09/15 02:42:01;;;;;;;4.50;1.90;;;;;;;;;;5095212;28;20461;-71
2022/09/15 02:44:29;;;;;;;8.30;2.10;;;;;;;;;;5094813;28;21034;-71
2022/09/15 02:46:57;;;;;;;3.30;1.90;;;;;;;;;;5095223;28;20454;-71
2022/09/15 02:49:24;;;;;;;2.40;1.83;;;;;;;;;;5095008;28;20455;-71
2022/09/15 02:51:53;;;;;;;3.50;1.90;;;;;;;;;;5095010;28;20458;-73
2022/09/15 02:54:20;;;;;;;4.13;1.90;;;;;;;;;;5094797;28;20494;-71
2022/09/15 02:56:47;;;;;;;3.10;1.97;;;;;;;;;;5094845;28;20455;-71
2022/09/15 02:59:14;;;;;;;3.63;2.20;;;;;;;;;;5094964;28;20963;-71
2022/09/15 03:01:42;;;;;;;2.80;1.90;;;;;;;;;;5094784;28;20461;-71
2022/09/15 03:04:09;;;;;;;1.90;1.50;;;;;;;;;;5094618;28;20493;-71
2022/09/15 03:06:36;;;;;;;2.93;1.93;;;;;;;;;;5094745;28;20455;-71
2022/09/15 03:09:05;;;;;;;2.30;1.70;;;;;;;;;;5094637;28;20451;-71
2022/09/15 03:11:33;;;;;;;5.00;2.40;;;;;;;;;;5094483;28;20453;-71
2022/09/15 03:14:01;;;;;;;3.47;1.87;;;;;;;;;;5094265;28;20482;-71
2022/09/15 03:16:29;;;;;;;2.70;2.13;;;;;;;;;;5094565;28;20491;-71
2022/09/15 03:18:58;;;;;;;2.43;2.00;;;;;;;;;;5094515;28;20458;-71
2022/09/15 03:21:26;;;;;;;3.23;1.70;;;;;;;;;;5094477;28;20504;-71
2022/09/15 03:23:53;;;;;;;2.33;1.83;;;;;;;;;;5093904;28;20474;-71
2022/09/15 03:26:21;;;;;;;5.23;2.40;;;;;;;;;;5094560;28;20446;-71
2022/09/15 03:28:48;;;;;;;3.93;2.20;;;;;;;;;;5094334;28;20450;-71
2022/09/15 03:31:16;;;;;;;5.00;2.07;;;;;;;;;;5094220;28;20455;-71
2022/09/15 03:33:43;;;;;;;4.27;2.13;;;;;;;;;;5094128;28;20913;-71
2022/09/15 03:36:10;;;;;;;2.83;2.00;;;;;;;;;;5093251;28;20491;-71
2022/09/15 03:38:37;;;;;;;3.13;1.90;;;;;;;;;;5093847;28;20458;-71
2022/09/15 03:41:06;;;;;;;3.80;1.90;;;;;;;;;;5094009;28;20837;-71
2022/09/15 03:43:35;;;;;;;4.90;1.83;;;;;;;;;;5093639;28;20458;-71
2022/09/15 03:46:03;;;;;;;3.57;1.90;;;;;;;;;;5093826;28;20443;-71
2022/09/15 03:48:31;;;;;;;4.20;2.20;;;;;;;;;;5093865;28;20450;-71
2022/09/15 03:50:58;;;;;;;3.10;2.43;;;;;;;;;;5093879;28;20846;-71
2022/09/15 03:53:26;;;;;;;2.37;1.77;;;;;;;;;;5093574;28;20457;-71
2022/09/15 03:55:53;;;;;;;3.43;1.97;;;;;;;;;;5093777;28;21003;-71
2022/09/15 03:58:20;;;;;;;2.73;2.13;;;;;;;;;;5093653;28;20457;-71
2022/09/15 04:00:49;;;;;;;3.30;1.70;;;;;;;;;;5093813;28;20446;-71
2022/09/15 04:03:16;;;;;;;10.40;2.40;;;;;;;;;;5093555;28;20453;-71
2022/09/15 04:05:43;;;;;;;3.27;2.43;;;;;;;;;;5093124;28;20462;-71
2022/09/15 04:08:12;;;;;;;10.70;2.60;;;;;;;;;;5093571;28;20823;-71
2022/09/15 04:10:39;;;;;;;5.70;2.53;;;;;;;;;;5093438;28;20466;-71
2022/09/15 04:13:06;;;;;;;2.03;1.63;;;;;;;;;;5093428;28;20933;-71
2022/09/15 04:15:34;;;;;;;2.50;1.80;;;;;;;;;;5092969;28;20482;-71
2022/09/15 04:18:02;;;;;;;2.00;1.53;;;;;;;;;;5093380;28;20835;-71
2022/09/15 04:20:30;;;;;;;4.80;2.13;;;;;;;;;;5093342;28;20451;-71
2022/09/15 04:22:57;;;;;;;2.63;2.33;;;;;;;;;;5093028;28;20458;-73
2022/09/15 04:25:26;;;;;;;3.47;1.80;;;;;;;;;;5093020;28;20474;-73
2022/09/15 04:27:53;;;;;;;5.10;2.10;;;;;;;;;;5093253;28;20446;-73
2022/09/15 04:30:21;;;;;;;4.73;2.87;;;;;;;;;;5093106;28;20490;-73
2022/09/15 04:32:48;;;;;;;2.13;1.57;;;;;;;;;;5093134;28;20454;-73
2022/09/15 04:35:20;;;;;;;2.70;2.40;;;;;;;;;;5092919;28;20482;-71
2022/09/15 04:37:47;;;;;;;5.20;2.23;;;;;;;;;;5093051;28;20546;-73
2022/09/15 04:40:16;;;;;;;3.77;1.83;;;;;;;;;;5093347;28;20827;-73
2022/09/15 04:42:43;;;;;;;3.00;2.00;;;;;;;;;;5092967;28;20455;-73
2022/09/15 04:45:11;;;;;;;4.00;1.77;;;;;;;;;;5092812;28;20470;-73
2022/09/15 04:47:38;;;;;;;2.57;1.87;;;;;;;;;;5092698;28;20451;-73
2022/09/15 04:50:06;;;;;;;3.40;1.80;;;;;;;;;;5093152;28;20465;-73
2022/09/15 04:52:35;;;;;;;7.30;2.20;;;;;;;;;;5093114;28;20457;-73
2022/09/15 04:55:02;;;;;;;2.90;1.90;;;;;;;;;;5092875;28;20493;-73
2022/09/15 04:57:30;;;;;;;2.70;1.80;;;;;;;;;;5092840;28;20447;-73
2022/09/15 04:59:57;;;;;;;2.97;1.80;;;;;;;;;;5093007;28;20450;-73
2022/09/15 05:02:24;;;;;;;3.67;1.80;;;;;;;;;;5092826;28;20483;-73
2022/09/15 05:04:51;;;;;;;3.03;1.90;;;;;;;;;;5092640;28;20551;-73
2022/09/15 05:07:19;;;;;;;3.40;2.10;;;;;;;;;;5092876;28;20839;-73
2022/09/15 05:09:48;;;;;;;3.03;1.60;;;;;;;;;;5092891;28;20442;-73
2022/09/15 05:12:16;;;;;;;2.30;1.73;;;;;;;;;;5092804;28;20455;-73
2022/09/15 05:14:43;;;;;;;10.93;2.03;;;;;;;;;;5092489;28;20483;-73
2022/09/15 05:17:12;;;;;;;3.07;1.70;;;;;;;;;;5092614;28;20537;-73
2022/09/15 05:19:39;;;;;;;3.90;2.07;;;;;;;;;;5092762;28;20450;-73
2022/09/15 05:22:06;;;;;;;3.10;2.00;;;;;;;;;;5092240;28;20454;-73
2022/09/15 05:24:34;;;;;;;3.73;2.33;;;;;;;;;;5092346;28;20466;-73
2022/09/15 05:27:02;;;;;;;2.30;1.77;;;;;;;;;;5092813;28;20465;-73
2022/09/15 05:29:29;;;;;;;2.57;1.70;;;;;;;;;;5092555;28;20442;-73
2022/09/15 05:31:56;;;;;;;2.57;2.07;;;;;;;;;;5092840;28;20458;-73
2022/09/15 05:34:24;;;;;;;2.60;1.73;;;;;;;;;;5092199;28;20849;-72
2022/09/15 05:36:51;;;;;;;5.03;1.73;;;;;;;;;;5092719;28;20490;-73
2022/09/15 05:39:18;;;;;;;2.00;1.70;;;;;;;;;;5092536;28;20455;-71
2022/09/15 05:41:45;;;;;;;4.30;1.90;;;;;;;;;;5091726;28;20462;-71
2022/09/15 05:44:13;;;;;;;3.67;2.20;;;;;;;;;;5091348;28;20470;-71
2022/09/15 05:46:40;;;;;;;3.10;1.70;;;;;;;;;;5091649;28;20829;-71
2022/09/15 05:49:07;;;;;;;4.93;2.00;;;;;;;;;;5092452;28;20451;-71
2022/09/15 05:51:35;;;;;;;2.47;1.90;;;;;;;;;;5092155;28;21031;-71
2022/09/15 05:54:02;;;;;;;2.53;1.50;;;;;;;;;;5091959;28;20467;-72
2022/09/15 05:56:30;;;;;;;2.00;1.63;;;;;;;;;;5092069;28;20497;-73
2022/09/15 05:58:57;;;;;;;2.70;2.07;;;;;;;;;;5092306;28;20468;-70
2022/09/15 06:01:26;;;;;;;2.77;2.10;;;;;;;;;;5095111;28;20450;-70
2022/09/15 06:03:53;;;;;;;6.03;2.10;;;;;;;;;;5095717;28;20466;-71
2022/09/15 06:06:21;;;;;;;5.67;2.10;;;;;;;;;;5095765;28;20446;-72
2022/09/15 06:08:50;;;;;;;6.10;2.80;;;;;;;;;;5095884;28;20503;-71
2022/09/15 06:11:18;;;;;;;3.40;2.00;;;;;;;;;;5095677;28;20455;-73
2022/09/15 06:13:45;;;;;;;5.00;2.37;;;;;;;;;;5095411;28;20478;-71
2022/09/15 06:16:14;;;;;;;10.00;3.03;;;;;;;;;;5095435;28;20493;-71
2022/09/15 06:18:42;;;;;;;8.00;2.83;;;;;;;;;;5095394;28;20948;-73
2022/09/15 06:21:10;;;;;;;6.60;2.57;;;;;;;;;;5091891;28;20475;-71
2022/09/15 06:23:38;;;;;;;8.20;3.23;;;;;;;;;;5092943;28;20467;-71
2022/09/15 06:26:06;;;;;;;7.73;3.03;;;;;;;;;;5093938;28;20927;-71
2022/09/15 06:28:33;;;;;;;3.83;2.13;;;;;;;;;;5093871;28;20828;-70
2022/09/15 06:31:00;;;;;;;7.90;2.17;;;;;;;;;;5094088;28;20458;-71
2022/09/15 06:33:27;;;;;;;6.23;1.80;;;;;;;;;;5088545;28;20472;-71
2022/09/15 06:35:56;;;;;;;2.60;2.00;;;;;;;;;;5073734;28;20744;-71
2022/09/15 06:38:23;;;;;;;4.13;1.90;;;;;;;;;;5073625;28;20448;-71
2022/09/15 06:40:56;;;;;;;3.03;1.80;;;;;;;;;;5073696;28;20458;-71
2022/09/15 06:43:24;;;;;;;4.60;2.40;;;;;;;;;;5073560;28;20452;-71
2022/09/15 06:45:51;;;;;;;3.37;1.80;;;;;;;;;;5073396;28;20813;-71
2022/09/15 06:48:18;;;;;;;4.80;2.20;;;;;;;;;;5073265;28;20972;-71
2022/09/15 06:50:45;;;;;;;2.63;1.60;;;;;;;;;;5072915;28;20451;-71
2022/09/15 06:53:13;;;;;;;1.77;1.40;;;;;;;;;;5073285;28;20447;-71
2022/09/15 06:55:41;;;;;;;2.73;1.50;;;;;;;;;;5072744;28;20842;-71
2022/09/15 06:58:08;;;;;;;1.93;1.63;;;;;;;;;;5073176;28;20452;-71
2022/09/15 07:00:35;;;;;;;1.57;1.30;;;;;;;;;;5072921;28;20479;-71
2022/09/15 07:03:02;;;;;;;2.27;1.50;;;;;;;;;;5073137;28;20455;-71
2022/09/15 07:05:30;;;;;;;3.07;1.67;;;;;;;;;;5072553;28;20486;-71
2022/09/15 07:07:57;;;;;;;5.60;1.47;;;;;;;;;;5073145;28;20727;-71
2022/09/15 07:10:26;;;;;;;2.33;1.50;;;;;;;;;;5072753;28;20447;-71
2022/09/15 07:12:54;;;;;;;2.40;2.07;;;;;;;;;;5072814;28;20448;-71
2022/09/15 07:15:22;;;;;;;5.30;1.67;;;;;;;;;;5089197;28;20486;-71
2022/09/15 07:17:49;;;;;;;3.30;1.40;;;;;;;;;;5094093;28;20565;-71
2022/09/15 07:20:16;;;;;;;4.73;1.60;;;;;;;;;;5094246;28;20447;-71
2022/09/15 07:22:43;;;;;;;4.43;1.80;;;;;;;;;;5093746;28;20939;-71
2022/09/15 07:25:11;;;;;;;4.00;1.30;;;;;;;;;;5094187;28;20987;-71
2022/09/15 07:27:39;;;;;;;7.33;1.40;;;;;;;;;;5094495;28;20442;-71
2022/09/15 07:30:07;;;;;;;8.67;4.50;;;;;;;;;;5094420;28;20823;-71
2022/09/15 07:32:34;;;;;;;2.00;1.70;;;;;;;;;;5094203;28;20966;-71
2022/09/15 07:35:01;;;;;;;7.50;1.53;;;;;;;;;;5094121;28;20558;-71
2022/09/15 07:37:29;;;;;;;3.20;1.60;;;;;;;;;;5094006;28;20534;-71
2022/09/15 07:39:56;;;;;;;5.47;1.50;;;;;;;;;;5094136;28;20458;-71
2022/09/15 07:42:24;;;;;;;2.33;1.33;;;;;;;;;;5093815;28;20944;-71
2022/09/15 07:44:53;;;;;;;2.70;1.20;;;;;;;;;;5093777;28;20467;-70
2022/09/15 07:47:20;;;;;;;1.83;1.20;;;;;;;;;;5093884;28;20451;-71
2022/09/15 07:49:47;;;;;;;2.33;1.67;;;;;;;;;;5093941;28;20512;-71
2022/09/15 07:52:14;;;;;;;1.80;1.50;;;;;;;;;;5093886;28;20823;-71
2022/09/15 07:54:41;;;;;;;4.33;1.40;;;;;;;;;;5093566;28;20477;-71
2022/09/15 07:57:08;;;;;;;1.57;1.17;;;;;;;;;;5093732;28;20483;-71
2022/09/15 07:59:35;;;;;;;2.03;1.23;;;;;;;;;;5093650;28;20450;-71
2022/09/15 08:02:03;;;;;;;2.93;1.50;;;;;;;;;;5093771;28;20954;-71
2022/09/15 08:04:31;;;;;;;1.80;1.17;;;;;;;;;;5093363;28;20478;-71
2022/09/15 08:06:58;;;;;;;1.63;1.27;;;;;;;;;;5093717;28;20449;-71
2022/09/15 08:09:25;;;;;;;1.60;1.30;;;;;;;;;;5093556;28;20458;-71
2022/09/15 08:11:52;;;;;;;2.00;1.63;;;;;;;;;;5093587;28;20446;-70
2022/09/15 08:14:20;;;;;;;4.60;1.63;;;;;;;;;;5093169;28;20477;-71
2022/09/15 08:16:47;;;;;;;1.70;1.30;;;;;;;;;;5093391;28;20490;-71
2022/09/15 08:19:16;;;;;;;4.40;1.57;;;;;;;;;;5093521;28;20958;-71
2022/09/15 08:21:43;;;;;;;1.90;1.23;;;;;;;;;;5093304;28;20454;-73
2022/09/15 08:24:10;;;;;;;2.13;1.90;;;;;;;;;;5092161;28;21002;-71
2022/09/15 08:26:37;;;;;;;1.67;1.20;;;;;;;;;;5093387;28;20461;-70
2022/09/15 08:29:04;;;;;;;2.20;1.50;;;;;;;;;;5093197;28;20495;-70
2022/09/15 08:31:31;;;;;;;2.60;1.43;;;;;;;;;;5093250;28;20455;-73
2022/09/15 08:34:02;;;;;;;1.87;1.40;;;;;;;;;;5093046;28;20478;-73
2022/09/15 08:36:31;;;;;;;2.60;1.73;;;;;;;;;;5093150;28;20886;-73
2022/09/15 08:38:58;;;;;;;4.40;1.70;;;;;;;;;;5093243;28;20454;-73
2022/09/15 08:41:26;;;;;;;2.20;1.60;;;;;;;;;;5092985;28;20467;-73
2022/09/15 08:43:56;;;;;;;3.97;1.50;;;;;;;;;;5093149;28;20467;-73
2022/09/15 08:46:27;;;;;;;1.90;1.50;;;;;;;;;;5093095;28;20818;-72
2022/09/15 08:48:57;;;;;;;2.67;1.90;;;;;;;;;;5093152;28;20825;-71
2022/09/15 08:51:28;;;;;;;2.33;1.70;;;;;;;;;;5092970;28;20450;-71
2022/09/15 08:54:00;;;;;;;3.07;2.50;;;;;;;;;;5092733;28;20478;-71
2022/09/15 08:56:29;;;;;;;2.33;1.77;;;;;;;;;;5092807;28;20478;-71
2022/09/15 08:58:56;;;;;;;6.30;1.90;;;;;;;;;;5092948;28;20450;-71
2022/09/15 09:01:30;;;;;;;2.43;1.70;;;;;;;;;;5092754;28;20455;-71
2022/09/15 09:04:11;;;;;;;2.50;1.43;;;;;;;;;;5092819;28;20844;-71
2022/09/15 09:06:43;;;;;;;2.30;1.80;;;;;;;;;;5092827;28;20457;-71
2022/09/15 09:09:16;;;;;;;2.30;1.63;;;;;;;;;;5092931;28;20454;-71
2022/09/15 09:11:53;;;;;;;3.27;1.27;;;;;;;;;;5093078;28;20431;-71
2022/09/15 09:14:25;;;;;;;3.47;1.70;;;;;;;;;;5092562;28;20477;-71
2022/09/15 09:17:00;;;;;;;2.23;1.60;;;;;;;;;;5092858;28;20539;-71
2022/09/15 09:19:51;;;;;;;2.37;1.67;;;;;;;;;;5092769;28;20499;-71
2022/09/15 09:22:21;;;;;;;3.13;1.53;;;;;;;;;;5077202;28;20956;-71
2022/09/15 09:24:52;;;;;;;3.17;2.87;;;;;;;;;;5092594;28;20467;-71
2022/09/15 09:27:20;;;;;;;2.23;1.43;;;;;;;;;;5092585;28;20439;-71
2022/09/15 09:29:49;;;;;;;5.10;1.60;;;;;;;;;;5092572;28;20446;-73
2022/09/15 09:32:17;;;;;;;3.80;1.80;;;;;;;;;;5092699;28;20926;-73
2022/09/15 09:34:46;;;;;;;3.03;1.40;;;;;;;;;;5094531;28;20482;-73
2022/09/15 09:37:14;;;;;;;2.60;1.50;;;;;;;;;;5096535;28;20848;-73
2022/09/15 09:39:42;;;;;;;2.10;1.43;;;;;;;;;;5096345;28;20461;-73
2022/09/15 09:42:14;;;;;;;2.37;1.67;;;;;;;;;;5096304;28;20466;-73
2022/09/15 09:44:41;;;;;;;3.47;1.93;;;;;;;;;;5096115;28;20485;-73
2022/09/15 09:47:08;;;;;;;2.10;1.80;;;;;;;;;;5096425;28;20815;-73
2022/09/15 09:49:38;;;;;;;3.50;1.50;;;;;;;;;;5096200;28;20450;-73
2022/09/15 09:52:06;;;;;;;5.17;1.60;;;;;;;;;;5096275;28;20457;-73
2022/09/15 09:54:34;;;;;;;2.83;2.00;;;;;;;;;;5095888;28;20968;-73
2022/09/15 09:57:16;;;;;;;5.83;1.67;;;;;;;;;;5095995;28;20501;-73
2022/09/15 09:59:45;;;;;;;1.80;1.30;;;;;;;;;;5095771;28;20454;-73
2022/09/15 10:02:16;;;;;;;2.27;1.30;;;;;;;;;;5096251;28;20815;-73
2022/09/15 10:04:43;;;;;;;2.60;2.20;;;;;;;;;;5095667;28;20470;-73
2022/09/15 10:07:11;;;;;;;2.23;1.50;;;;;;;;;;5096043;28;20443;-73
2022/09/15 10:09:38;;;;;;;2.27;1.63;;;;;;;;;;5096049;28;20948;-73
2022/09/15 10:12:07;;;;;;;3.27;1.50;;;;;;;;;;5096034;28;20451;-73
2022/09/15 10:14:35;;;;;;;2.63;1.57;;;;;;;;;;5095475;28;20573;-73
2022/09/15 10:17:06;;;;;;;1.80;1.20;;;;;;;;;;5095740;28;20498;-73
2022/09/15 10:19:35;;;;;;;3.30;1.70;;;;;;;;;;5095702;28;20446;-73
2022/09/15 10:22:03;;;;;;;1.90;1.30;;;;;;;;;;5095588;28;20504;-73
2022/09/15 10:24:33;;;;;;;2.80;1.30;;;;;;;;;;5095456;28;20467;-73
2022/09/15 10:27:07;;;;;;;1.80;1.40;;;;;;;;;;5095610;28;20493;-73
2022/09/15 10:29:38;;;;;;;7.00;1.50;;;;;;;;;;5095761;28;20445;-73
2022/09/15 10:32:17;;;;;;;1.90;1.60;;;;;;;;;;5095704;28;20523;-73
2022/09/15 10:34:45;;;;;;;4.10;1.70;;;;;;;;;;5095174;28;20476;-73
2022/09/15 10:37:16;;;;;;;2.33;1.47;;;;;;;;;;5095432;28;20999;-73
2022/09/15 10:39:52;;;;;;;2.67;1.67;;;;;;;;;;5095431;28;20791;-73
2022/09/15 10:42:26;;;;;;;2.37;1.47;;;;;;;;;;5095167;28;20454;-73
2022/09/15 10:44:59;;;;;;;2.93;1.60;;;;;;;;;;5095007;28;20458;-71
2022/09/15 10:47:31;;;;;;;2.60;1.70;;;;;;;;;;5094672;28;20956;-73
2022/09/15 10:50:06;;;;;;;2.10;1.63;;;;;;;;;;5095160;28;20458;-73
2022/09/15 10:52:39;;;;;;;2.43;1.50;;;;;;;;;;5095120;28;20462;-73
2022/09/15 10:55:21;;;;;;;3.63;1.80;;;;;;;;;;5094734;28;20478;-73
2022/09/15 10:57:58;;;;;;;3.20;1.70;;;;;;;;;;5092696;28;20491;-73
2022/09/15 11:00:29;;;;;;;3.03;1.90;;;;;;;;;;5095275;28;20449;-73
2022/09/15 11:03:20;;;;;;;1.80;1.50;;;;;;;;;;5095050;28;20446;-73
2022/09/15 11:05:55;;;;;;;2.90;1.50;;;;;;;;;;5037859;28;20477;-73
2022/09/15 11:08:34;;;;;;;2.73;1.40;;;;;;;;;;5094671;28;20446;-73
2022/09/15 11:11:04;;;;;;;2.67;1.57;;;;;;;;;;5094696;28;20446;-73
2022/09/15 11:13:36;;;;;;;1.83;1.40;;;;;;;;;;5094381;28;20811;-73
2022/09/15 11:16:09;;;;;;;1.60;1.30;;;;;;;;;;5094631;28;20924;-73
2022/09/15 11:18:51;;;;;;;1.80;1.50;;;;;;;;;;5094557;28;20607;-73
2022/09/15 11:21:25;;;;;;;2.07;1.40;;;;;;;;;;5094604;28;20932;-73
2022/09/15 11:23:57;;;;;;;2.23;1.50;;;;;;;;;;5093842;28;20492;-74
2022/09/15 11:26:30;;;;;;;3.57;1.90;;;;;;;;;;5094341;28;20454;-74
2022/09/15 11:28:59;;;;;;;2.83;1.20;;;;;;;;;;5094488;28;20936;-74
2022/09/15 11:31:28;;;;;;;5.83;1.60;;;;;;;;;;5094148;28;20446;-74
2022/09/15 11:33:57;;;;;;;6.50;1.37;;;;;;;;;;5094147;28;20479;-74
2022/09/15 11:36:30;;;;;;;2.27;1.60;;;;;;;;;;5094149;28;20500;-74
2022/09/15 11:39:01;;;;;;;1.90;1.23;;;;;;;;;;5094275;28;20493;-74
2022/09/15 11:41:31;;;;;;;2.13;1.30;;;;;;;;;;5094044;28;20458;-73
2022/09/15 11:44:03;;;;;;;1.60;1.20;;;;;;;;;;5093824;28;20466;-73
2022/09/15 11:46:32;;;;;;;2.60;1.10;;;;;;;;;;5094050;28;20451;-73
2022/09/15 11:49:02;;;;;;;3.90;1.27;;;;;;;;;;5093951;28;20963;-73
2022/09/15 11:51:32;;;;;;;3.00;1.70;;;;;;;;;;5093977;28;20462;-73
2022/09/15 11:54:04;;;;;;;1.70;1.30;;;;;;;;;;5093937;28;20826;-73
2022/09/15 11:56:34;;;;;;;3.93;1.30;;;;;;;;;;5093703;28;21002;-73
2022/09/15 11:59:05;;;;;;;2.00;1.20;;;;;;;;;;5093077;28;20933;-73
2022/09/15 12:01:35;;;;;;;2.80;1.20;;;;;;;;;;5093746;28;20466;-73
2022/09/15 12:04:04;;;;;;;2.07;1.33;;;;;;;;;;5093538;28;20481;-73
2022/09/15 12:06:36;;;;;;;2.60;1.30;;;;;;;;;;5093674;28;20453;-73
2022/09/15 12:09:05;;;;;;;1.73;1.47;;;;;;;;;;5093740;28;20451;-73
2022/09/15 12:11:34;;;;;;;5.77;1.60;;;;;;;;;;5093530;28;20457;-73
2022/09/15 12:14:03;;;;;;;5.30;1.60;;;;;;;;;;5093335;28;20471;-73
2022/09/15 12:16:30;;;;;;;2.90;1.67;;;;;;;;;;5093456;28;20450;-73
2022/09/15 12:18:59;;;;;;;1.77;1.50;;;;;;;;;;5093505;28;20483;-73
2022/09/15 12:21:32;;;;;;;5.20;1.47;;;;;;;;;;5093454;28;20455;-73
2022/09/15 12:24:03;;;;;;;3.40;1.77;;;;;;;;;;5093300;28;20987;-73
2022/09/15 12:26:33;;;;;;;3.57;1.73;;;;;;;;;;5093388;28;20526;-73
2022/09/15 12:29:01;;;;;;;1.50;1.30;;;;;;;;;;5093341;28;20442;-73
2022/09/15 12:31:33;;;;;;;2.97;1.43;;;;;;;;;;5092958;28;20943;-74
2022/09/15 12:34:00;;;;;;;3.60;1.63;;;;;;;;;;5093091;28;20474;-74
2022/09/15 12:36:41;;;;;;;1.63;1.20;;;;;;;;;;5093142;28;20814;-74
2022/09/15 12:39:23;;;;;;;1.90;1.47;;;;;;;;;;5093298;28;20990;-74
2022/09/15 12:41:50;;;;;;;2.57;1.40;;;;;;;;;;5093439;28;20461;-74
2022/09/15 12:44:24;;;;;;;2.80;1.20;;;;;;;;;;5093118;28;20854;-74
2022/09/15 12:46:52;;;;;;;2.37;1.10;;;;;;;;;;5093166;28;20478;-74
2022/09/15 12:49:21;;;;;;;3.13;1.30;;;;;;;;;;5092948;28;20450;-74
2022/09/15 12:51:50;;;;;;;2.00;1.30;;;;;;;;;;5093145;28;20461;-74
2022/09/15 12:54:22;;;;;;;1.60;1.20;;;;;;;;;;5092786;28;20478;-74
2022/09/15 12:56:52;;;;;;;2.20;1.30;;;;;;;;;;5092912;28;20458;-74
2022/09/15 12:59:24;;;;;;;1.50;1.20;;;;;;;;;;5092954;28;20497;-74
2022/09/15 13:01:52;;;;;;;2.77;1.20;;;;;;;;;;5092930;28;20450;-73
2022/09/15 13:04:27;;;;;;;1.40;1.00;;;;;;;;;;5092729;28;20501;-73
2022/09/15 13:07:13;;;;;;;1.93;1.00;;;;;;;;;;5092945;28;20453;-73
2022/09/15 13:09:44;;;;;;;3.30;1.10;;;;;;;;;;5095109;28;21040;-73
2022/09/15 13:12:15;;;;;;;3.80;1.13;;;;;;;;;;5097141;28;20812;-73
2022/09/15 13:14:47;;;;;;;1.70;1.03;;;;;;;;;;5096666;28;20474;-73
2022/09/15 13:17:16;;;;;;;1.50;1.00;;;;;;;;;;5096981;28;20557;-73
2022/09/15 13:19:45;;;;;;;3.53;1.60;;;;;;;;;;5096762;28;20458;-74
2022/09/15 13:22:18;;;;;;;1.57;0.97;;;;;;;;;;5096586;28;20454;-74
2022/09/15 13:24:47;;;;;;;2.50;1.10;;;;;;;;;;5096476;28;20466;-74
2022/09/15 13:27:18;;;;;;;1.80;1.00;;;;;;;;;;5096854;28;20823;-74
2022/09/15 13:29:47;;;;;;;5.30;2.10;;;;;;;;;;5096785;28;20927;-74
2022/09/15 13:32:18;;;;;;;2.90;1.10;;;;;;;;;;5096660;28;20455;-73
2022/09/15 13:34:55;;;;;;;1.40;1.10;;;;;;;;;;5096486;28;20466;-73
2022/09/15 13:37:29;;;;;;;1.70;0.90;;;;;;;;;;5096494;28;20446;-73
2022/09/15 13:40:08;;;;;;;1.50;1.10;;;;;;;;;;5096633;28;20468;-73
2022/09/15 13:42:46;;;;;;;2.60;1.10;;;;;;;;;;5096371;28;20511;-73
2022/09/15 13:45:22;;;;;;;2.27;1.20;;;;;;;;;;5096268;28;20557;-73
2022/09/15 13:47:55;;;;;;;1.80;1.10;;;;;;;;;;5096387;28;20438;-73
2022/09/15 13:50:24;;;;;;;2.97;1.87;;;;;;;;;;5096354;28;20451;-73
2022/09/15 13:53:19;;;;;;;1.83;1.10;;;;;;;;;;5096555;28;20850;-73
2022/09/15 13:55:47;;;;;;;1.90;1.00;;;;;;;;;;5060655;28;21096;-73
2022/09/15 13:58:17;;;;;;;1.50;1.27;;;;;;;;;;5096140;28;20518;-72
2022/09/15 14:00:46;;;;;;;2.30;1.47;;;;;;;;;;5096071;28;20466;-73
2022/09/15 14:03:16;;;;;;;2.73;1.10;;;;;;;;;;5096105;28;20960;-73
2022/09/15 14:05:43;;;;;;;5.63;1.40;;;;;;;;;;5089279;28;20862;-73
2022/09/15 14:08:14;;;;;;;3.90;1.30;;;;;;;;;;5075611;28;20451;-74
2022/09/15 14:10:45;;;;;;;1.90;1.37;;;;;;;;;;5075400;28;20490;-75
2022/09/15 14:13:14;;;;;;;2.77;1.53;;;;;;;;;;5075618;28;20456;-75
2022/09/15 14:15:56;;;;;;;2.00;1.50;;;;;;;;;;5075058;28;20877;-75
2022/09/15 14:18:23;;;;;;;3.80;1.83;;;;;;;;;;5082335;28;20490;-75
2022/09/15 14:20:58;;;;;;;2.43;1.60;;;;;;;;;;5077124;28;20459;-75
2022/09/15 14:23:25;;;;;;;2.83;1.40;;;;;;;;;;5092732;28;20457;-75
2022/09/15 14:25:53;;;;;;;3.07;1.47;;;;;;;;;;5077242;28;20451;-74
2022/09/15 14:28:23;;;;;;;2.07;1.40;;;;;;;;;;5073784;28;20462;-74
2022/09/15 14:30:51;;;;;;;2.50;1.63;;;;;;;;;;5074041;28;20502;-74
2022/09/15 14:33:18;;;;;;;1.80;1.57;;;;;;;;;;5073975;28;20458;-74
2022/09/15 14:35:46;;;;;;;3.13;1.57;;;;;;;;;;5073336;28;20486;-74
2022/09/15 14:38:21;;;;;;;5.00;2.83;;;;;;;;;;5073534;28;20498;-74
2022/09/15 14:40:51;;;;;;;2.80;2.13;;;;;;;;;;5073235;28;20455;-74
2022/09/15 14:43:25;;;;;;;6.60;1.80;;;;;;;;;;5073587;28;20498;-74
2022/09/15 14:45:54;;;;;;;3.07;1.63;;;;;;;;;;5073549;28;20459;-74
2022/09/15 14:48:27;;;;;;;2.70;1.90;;;;;;;;;;5073153;28;20473;-74
2022/09/15 14:50:58;;;;;;;1.80;1.40;;;;;;;;;;5073384;28;20563;-74
2022/09/15 14:53:30;;;;;;;2.10;1.70;;;;;;;;;;5073000;28;20452;-74
2022/09/15 14:56:00;;;;;;;4.10;1.63;;;;;;;;;;5072635;28;20476;-74
2022/09/15 14:58:29;;;;;;;1.93;1.53;;;;;;;;;;5073543;28;20484;-74
2022/09/15 15:01:05;;;;;;;3.87;1.53;;;;;;;;;;5072828;28;20444;-74